Corelia — ELPS7 — position and weather

sailwx.info

Track history (hours):
 
Tides and Currents Weather Stations Pressure Air Temp Water Temp Dewpoint Dewpoint Depression Visibility Wind Speed Wind Dir Waves Ship Positions

Corelia

Last reported at 2016-Jun-30 13:33 UTC. Time now 2016-Jun-30 14:11 UTC.
Position N 37°56' E 023°41'.

Length 48 m.

Type: Sailing vessel. MMSI: 636009854.

Date/timePositionNaut miles runAvg speedWind from/ knotsBaromVisibWave heightAir tempDewpointWater temp
2016-Jun-30 13:33N 37°56' E 023°41'0 0.0
2016-Jun-30 12:33N 37°56' E 023°41'0 0.0
2016-Jun-30 11:33N 37°56' E 023°41'0 0.0
2016-Jun-30 10:30N 37°56' E 023°41'0 0.0
2016-Jun-30 09:33N 37°56' E 023°41'0 0.0
2016-Jun-30 08:33N 37°56' E 023°41'0 0.0
2016-Jun-30 07:30N 37°56' E 023°41'0 0.0
2016-Jun-30 06:33N 37°56' E 023°41'0 0.0
2016-Jun-30 05:33N 37°56' E 023°41'0 0.0
2016-Jun-30 04:33N 37°56' E 023°41'0 0.0
2016-Jun-30 03:33N 37°56' E 023°41'0 0.0
2016-Jun-30 02:33N 37°56' E 023°41'0 0.0
2016-Jun-30 01:33N 37°56' E 023°41'0 0.0
2016-Jun-30 00:30N 37°56' E 023°41'0 0.0
2016-Jun-29 23:33N 37°56' E 023°41'0 0.0
2016-Jun-29 22:33N 37°56' E 023°41'0 0.0
2016-Jun-29 21:33N 37°56' E 023°41'0 0.0
2016-Jun-29 20:33N 37°56' E 023°41'0 0.0
2016-Jun-29 19:33N 37°56' E 023°41'0 0.0
2016-Jun-29 18:33N 37°56' E 023°41'0 0.0
2016-Jun-29 17:33N 37°56' E 023°41'0 0.0
2016-Jun-29 16:33N 37°56' E 023°41'5 5.4
2016-Jun-29 15:33N 37°51' E 023°39'1312.9
2016-Jun-29 14:33N 37°38' E 023°36'1312.6
2016-Jun-29 13:32N 37°26' E 023°32'  
2016-Jun-25 04:18N 37°16' E 023°10'0 0.0
2016-Jun-25 03:33N 37°16' E 023°10'0 0.0
2016-Jun-25 02:33N 37°16' E 023°10'0 0.0
2016-Jun-25 01:21N 37°16' E 023°10'0 0.0
2016-Jun-25 00:33N 37°16' E 023°10'0 0.0
2016-Jun-24 19:27N 37°16' E 023°10'10 0.6
2016-Jun-24 04:29N 37°21' E 023°20'0 0.0
2016-Jun-24 03:14N 37°21' E 023°20'0 0.0
2016-Jun-24 02:05N 37°21' E 023°20'0 0.0
2016-Jun-24 01:32N 37°21' E 023°20'0 0.0
2016-Jun-24 00:26N 37°21' E 023°20'0 0.0
2016-Jun-23 23:17N 37°21' E 023°20'3 0.8
2016-Jun-23 19:33N 37°22' E 023°23'1212.0
2016-Jun-23 18:33N 37°30' E 023°35'1312.8
2016-Jun-23 17:33N 37°43' E 023°38'1312.6
2016-Jun-23 16:33N 37°55' E 023°40'1 1.0
2016-Jun-23 15:31N 37°56' E 023°41'0 0.0
2016-Jun-23 14:31N 37°56' E 023°41'0 0.0
2016-Jun-23 13:31N 37°56' E 023°41'0 0.0
2016-Jun-23 12:31N 37°56' E 023°41'0 0.0
2016-Jun-23 11:31N 37°56' E 023°41'0 0.0
2016-Jun-23 10:31N 37°56' E 023°41'0 0.0
2016-Jun-23 09:31N 37°56' E 023°41'0 0.0
2016-Jun-23 08:31N 37°56' E 023°41'0 0.0
2016-Jun-23 07:31N 37°56' E 023°41'0 0.0
2016-Jun-23 05:31N 37°56' E 023°41'0 0.0
2016-Jun-23 04:31N 37°56' E 023°41'0 0.0
2016-Jun-23 03:31N 37°56' E 023°41'0 0.0
2016-Jun-23 02:31N 37°56' E 023°41'0 0.0
2016-Jun-23 01:28N 37°56' E 023°41'0 0.0
2016-Jun-23 00:31N 37°56' E 023°41'0 0.0
2016-Jun-22 23:31N 37°56' E 023°41'0 0.0
2016-Jun-22 22:31N 37°56' E 023°41'0 0.0
2016-Jun-22 21:31N 37°56' E 023°41'0 0.0
2016-Jun-22 20:31N 37°56' E 023°41'0 0.0
2016-Jun-22 19:31N 37°56' E 023°41'0 0.0
2016-Jun-22 18:31N 37°56' E 023°41'0 0.0
2016-Jun-22 17:28N 37°56' E 023°41'0 0.0
2016-Jun-22 16:31N 37°56' E 023°41'0 0.0
2016-Jun-22 15:31N 37°56' E 023°41'0 0.0
2016-Jun-22 14:31N 37°56' E 023°41'0 0.0
2016-Jun-22 13:31N 37°56' E 023°41'0 0.0
2016-Jun-22 12:31N 37°56' E 023°41'0 0.0
2016-Jun-22 11:31N 37°56' E 023°41'0 0.0
2016-Jun-22 10:31N 37°56' E 023°41'0 0.0
2016-Jun-22 09:31N 37°56' E 023°41'0 0.0
2016-Jun-22 08:31N 37°56' E 023°41'0 0.0
2016-Jun-22 07:31N 37°56' E 023°41'0 0.0
2016-Jun-22 06:31N 37°56' E 023°41'0 0.0
2016-Jun-22 05:31N 37°56' E 023°41'0 0.0
2016-Jun-22 04:25N 37°56' E 023°41'0 0.0
2016-Jun-22 03:31N 37°56' E 023°41'0 0.0
2016-Jun-22 02:31N 37°56' E 023°41'0 0.0
2016-Jun-22 01:31N 37°56' E 023°41'0 0.0
2016-Jun-22 00:31N 37°56' E 023°41'0 0.0
2016-Jun-21 23:31N 37°56' E 023°41'0 0.0
2016-Jun-21 22:31N 37°56' E 023°41'0 0.0
2016-Jun-21 21:31N 37°56' E 023°41'0 0.0
2016-Jun-21 20:31N 37°56' E 023°41'0 0.0
2016-Jun-21 19:31N 37°56' E 023°41'0 0.0
2016-Jun-21 18:31N 37°56' E 023°41'0 0.0
2016-Jun-21 17:31N 37°56' E 023°41'0 0.0
2016-Jun-21 16:31N 37°56' E 023°41'0 0.0
2016-Jun-21 15:31N 37°56' E 023°41'0 0.0
2016-Jun-21 14:25N 37°56' E 023°41'0 0.0
2016-Jun-21 13:31N 37°56' E 023°41'0 0.0
2016-Jun-21 12:31N 37°56' E 023°41'0 0.0
2016-Jun-21 11:31N 37°56' E 023°41'0 0.0
2016-Jun-21 10:28N 37°56' E 023°41'0 0.0
2016-Jun-21 09:31N 37°56' E 023°41'0 0.0
2016-Jun-21 08:31N 37°56' E 023°41'0 0.0
2016-Jun-21 07:31N 37°56' E 023°41'0 0.0
2016-Jun-21 04:31N 37°56' E 023°41'0 0.0
2016-Jun-21 03:31N 37°56' E 023°41'0 0.0
2016-Jun-21 02:31N 37°56' E 023°41'0 0.0
2016-Jun-21 01:31N 37°56' E 023°41'0 0.0
2016-Jun-21 00:31N 37°56' E 023°41'0 0.0
2016-Jun-20 23:31N 37°56' E 023°41'0 0.0
2016-Jun-20 22:31N 37°56' E 023°41'0 0.0
2016-Jun-20 21:31N 37°56' E 023°41'0 0.0
2016-Jun-20 20:31N 37°56' E 023°41'0 0.0
2016-Jun-20 19:31N 37°56' E 023°41'0 0.0
2016-Jun-20 18:31N 37°56' E 023°41'0 0.0
2016-Jun-20 17:31N 37°56' E 023°41'0 0.0
2016-Jun-20 16:31N 37°56' E 023°41'0 0.0
2016-Jun-20 15:31N 37°56' E 023°41'0 0.0
2016-Jun-20 14:31N 37°56' E 023°41'  
Track history (hours):
 
Tides and Currents Weather Stations Pressure Air Temp Water Temp Dewpoint Dewpoint Depression Visibility Wind Speed Wind Dir Waves Ship Positions

Corelia

Last reported at 2016-Jun-30 13:33 UTC. Time now 2016-Jun-30 14:11 UTC.
Position N 37°56' E 023°41'.

Length 48 m.

Type: Sailing vessel. MMSI: 636009854.

Date/timePositionNaut miles runAvg speedWind from/ knotsBaromVisibWave heightAir tempDewpointWater temp
2016-Jun-30 13:33N 37°56' E 023°41'0 0.0
2016-Jun-30 12:33N 37°56' E 023°41'0 0.0
2016-Jun-30 11:33N 37°56' E 023°41'0 0.0
2016-Jun-30 10:30N 37°56' E 023°41'0 0.0
2016-Jun-30 09:33N 37°56' E 023°41'0 0.0
2016-Jun-30 08:33N 37°56' E 023°41'0 0.0
2016-Jun-30 07:30N 37°56' E 023°41'0 0.0
2016-Jun-30 06:33N 37°56' E 023°41'0 0.0
2016-Jun-30 05:33N 37°56' E 023°41'0 0.0
2016-Jun-30 04:33N 37°56' E 023°41'0 0.0
2016-Jun-30 03:33N 37°56' E 023°41'0 0.0
2016-Jun-30 02:33N 37°56' E 023°41'0 0.0
2016-Jun-30 01:33N 37°56' E 023°41'0 0.0
2016-Jun-30 00:30N 37°56' E 023°41'0 0.0
2016-Jun-29 23:33N 37°56' E 023°41'0 0.0
2016-Jun-29 22:33N 37°56' E 023°41'0 0.0
2016-Jun-29 21:33N 37°56' E 023°41'0 0.0
2016-Jun-29 20:33N 37°56' E 023°41'0 0.0
2016-Jun-29 19:33N 37°56' E 023°41'0 0.0
2016-Jun-29 18:33N 37°56' E 023°41'0 0.0
2016-Jun-29 17:33N 37°56' E 023°41'0 0.0
2016-Jun-29 16:33N 37°56' E 023°41'5 5.4
2016-Jun-29 15:33N 37°51' E 023°39'1312.9
2016-Jun-29 14:33N 37°38' E 023°36'1312.6
2016-Jun-29 13:32N 37°26' E 023°32'  
2016-Jun-25 04:18N 37°16' E 023°10'0 0.0
2016-Jun-25 03:33N 37°16' E 023°10'0 0.0
2016-Jun-25 02:33N 37°16' E 023°10'0 0.0
2016-Jun-25 01:21N 37°16' E 023°10'0 0.0
2016-Jun-25 00:33N 37°16' E 023°10'0 0.0
2016-Jun-24 19:27N 37°16' E 023°10'10 0.6
2016-Jun-24 04:29N 37°21' E 023°20'0 0.0
2016-Jun-24 03:14N 37°21' E 023°20'0 0.0
2016-Jun-24 02:05N 37°21' E 023°20'0 0.0
2016-Jun-24 01:32N 37°21' E 023°20'0 0.0
2016-Jun-24 00:26N 37°21' E 023°20'0 0.0
2016-Jun-23 23:17N 37°21' E 023°20'3 0.8
2016-Jun-23 19:33N 37°22' E 023°23'1212.0
2016-Jun-23 18:33N 37°30' E 023°35'1312.8
2016-Jun-23 17:33N 37°43' E 023°38'1312.6
2016-Jun-23 16:33N 37°55' E 023°40'1 1.0
2016-Jun-23 15:31N 37°56' E 023°41'0 0.0
2016-Jun-23 14:31N 37°56' E 023°41'0 0.0
2016-Jun-23 13:31N 37°56' E 023°41'0 0.0
2016-Jun-23 12:31N 37°56' E 023°41'0 0.0
2016-Jun-23 11:31N 37°56' E 023°41'0 0.0
2016-Jun-23 10:31N 37°56' E 023°41'0 0.0
2016-Jun-23 09:31N 37°56' E 023°41'0 0.0
2016-Jun-23 08:31N 37°56' E 023°41'0 0.0
2016-Jun-23 07:31N 37°56' E 023°41'0 0.0
2016-Jun-23 05:31N 37°56' E 023°41'0 0.0
2016-Jun-23 04:31N 37°56' E 023°41'0 0.0
2016-Jun-23 03:31N 37°56' E 023°41'0 0.0
2016-Jun-23 02:31N 37°56' E 023°41'0 0.0
2016-Jun-23 01:28N 37°56' E 023°41'0 0.0
2016-Jun-23 00:31N 37°56' E 023°41'0 0.0
2016-Jun-22 23:31N 37°56' E 023°41'0 0.0
2016-Jun-22 22:31N 37°56' E 023°41'0 0.0
2016-Jun-22 21:31N 37°56' E 023°41'0 0.0
2016-Jun-22 20:31N 37°56' E 023°41'0 0.0
2016-Jun-22 19:31N 37°56' E 023°41'0 0.0
2016-Jun-22 18:31N 37°56' E 023°41'0 0.0
2016-Jun-22 17:28N 37°56' E 023°41'0 0.0
2016-Jun-22 16:31N 37°56' E 023°41'0 0.0
2016-Jun-22 15:31N 37°56' E 023°41'0 0.0
2016-Jun-22 14:31N 37°56' E 023°41'0 0.0
2016-Jun-22 13:31N 37°56' E 023°41'0 0.0
2016-Jun-22 12:31N 37°56' E 023°41'0 0.0
2016-Jun-22 11:31N 37°56' E 023°41'0 0.0
2016-Jun-22 10:31N 37°56' E 023°41'0 0.0
2016-Jun-22 09:31N 37°56' E 023°41'0 0.0
2016-Jun-22 08:31N 37°56' E 023°41'0 0.0
2016-Jun-22 07:31N 37°56' E 023°41'0 0.0
2016-Jun-22 06:31N 37°56' E 023°41'0 0.0
2016-Jun-22 05:31N 37°56' E 023°41'0 0.0
2016-Jun-22 04:25N 37°56' E 023°41'0 0.0
2016-Jun-22 03:31N 37°56' E 023°41'0 0.0
2016-Jun-22 02:31N 37°56' E 023°41'0 0.0
2016-Jun-22 01:31N 37°56' E 023°41'0 0.0
2016-Jun-22 00:31N 37°56' E 023°41'0 0.0
2016-Jun-21 23:31N 37°56' E 023°41'0 0.0
2016-Jun-21 22:31N 37°56' E 023°41'0 0.0
2016-Jun-21 21:31N 37°56' E 023°41'0 0.0
2016-Jun-21 20:31N 37°56' E 023°41'0 0.0
2016-Jun-21 19:31N 37°56' E 023°41'0 0.0
2016-Jun-21 18:31N 37°56' E 023°41'0 0.0
2016-Jun-21 17:31N 37°56' E 023°41'0 0.0
2016-Jun-21 16:31N 37°56' E 023°41'0 0.0
2016-Jun-21 15:31N 37°56' E 023°41'0 0.0
2016-Jun-21 14:25N 37°56' E 023°41'0 0.0
2016-Jun-21 13:31N 37°56' E 023°41'0 0.0
2016-Jun-21 12:31N 37°56' E 023°41'0 0.0
2016-Jun-21 11:31N 37°56' E 023°41'0 0.0
2016-Jun-21 10:28N 37°56' E 023°41'0 0.0
2016-Jun-21 09:31N 37°56' E 023°41'0 0.0
2016-Jun-21 08:31N 37°56' E 023°41'0 0.0
2016-Jun-21 07:31N 37°56' E 023°41'0 0.0
2016-Jun-21 04:31N 37°56' E 023°41'0 0.0
2016-Jun-21 03:31N 37°56' E 023°41'0 0.0
2016-Jun-21 02:31N 37°56' E 023°41'0 0.0
2016-Jun-21 01:31N 37°56' E 023°41'0 0.0
2016-Jun-21 00:31N 37°56' E 023°41'0 0.0
2016-Jun-20 23:31N 37°56' E 023°41'0 0.0
2016-Jun-20 22:31N 37°56' E 023°41'0 0.0
2016-Jun-20 21:31N 37°56' E 023°41'0 0.0
2016-Jun-20 20:31N 37°56' E 023°41'0 0.0
2016-Jun-20 19:31N 37°56' E 023°41'0 0.0
2016-Jun-20 18:31N 37°56' E 023°41'0 0.0
2016-Jun-20 17:31N 37°56' E 023°41'0 0.0
2016-Jun-20 16:31N 37°56' E 023°41'0 0.0
2016-Jun-20 15:31N 37°56' E 023°41'0 0.0
2016-Jun-20 14:31N 37°56' E 023°41'  

Dump ship's entire track history